PHHLC EHLE-EHLE

Flight info

Callsign PHHLC
Flight time 0h 28m
Altitude 1300
Route EHLEB DCT EHLEM
Aircraft DA40/L-SDFGRY/EB2

Departure

Time 2026-04-29 06:36
Airport Lelystad Airport (EHLE)

Arrival

Time 2026-04-29 07:04
Airport Lelystad Airport (EHLE)
Time Latitude Longitude Altitude Speed Heading
2026-04-29 06:32 52.45219 5.51752 -10 ft 0 kts 262°
2026-04-29 06:33 52.45219 5.51744 -10 ft 4 kts 281°
2026-04-29 06:33 52.45238 5.51696 -10 ft 3 kts 253°
2026-04-29 06:33 52.45208 5.51630 -10 ft 13 kts 228°
2026-04-29 06:33 52.45126 5.51480 -10 ft 19 kts 227°
2026-04-29 06:34 52.45057 5.51361 -11 ft 11 kts 227°
2026-04-29 06:34 52.45033 5.51282 -11 ft 7 kts 287°
2026-04-29 06:34 52.45064 5.51232 -10 ft 5 kts 317°
2026-04-29 06:34 52.45106 5.51163 -10 ft 10 kts 305°
2026-04-29 06:35 52.45180 5.51197 -9 ft 27 kts 43°
2026-04-29 06:35 52.45375 5.51559 48 ft 50 kts 49°
2026-04-29 06:35 52.45641 5.52037 162 ft 61 kts 49°
2026-04-29 06:35 52.45926 5.52552 369 ft 62 kts 46°
2026-04-29 06:36 52.46280 5.52990 538 ft 75 kts 10°
2026-04-29 06:36 52.46692 5.52320 624 ft 94 kts 293°
2026-04-29 06:36 52.46539 5.51187 651 ft 106 kts 241°
2026-04-29 06:36 52.46070 5.50222 627 ft 105 kts 226°
2026-04-29 06:37 52.45588 5.49376 511 ft 97 kts 221°
2026-04-29 06:37 52.45094 5.48578 442 ft 101 kts 219°
2026-04-29 06:37 52.44528 5.47973 484 ft 93 kts 172°
2026-04-29 06:37 52.44048 5.48366 456 ft 71 kts 111°
2026-04-29 06:38 52.44015 5.49100 282 ft 61 kts 57°
2026-04-29 06:38 52.44290 5.49602 141 ft 59 kts 45°
2026-04-29 06:38 52.44564 5.50092 68 ft 58 kts 49°
2026-04-29 06:38 52.44826 5.50558 6 ft 57 kts 45°
2026-04-29 06:39 52.45073 5.50985 62 ft 54 kts 46°
2026-04-29 06:39 52.45349 5.51469 251 ft 61 kts 45°
2026-04-29 06:39 52.45701 5.52014 405 ft 73 kts 46°
2026-04-29 06:39 52.46064 5.52596 652 ft 72 kts 47°
2026-04-29 06:40 52.46424 5.53158 815 ft 75 kts 49°
2026-04-29 06:40 52.46749 5.53810 926 ft 65 kts 82°
2026-04-29 06:40 52.46330 5.54430 913 ft 101 kts 150°
2026-04-29 06:40 52.45617 5.54106 1030 ft 125 kts 212°
2026-04-29 06:41 52.45027 5.53020 1138 ft 129 kts 224°
2026-04-29 06:41 52.44476 5.51963 1269 ft 124 kts 222°
2026-04-29 06:41 52.43778 5.51320 1284 ft 107 kts 164°
2026-04-29 06:41 52.43227 5.51919 1288 ft 98 kts 127°
2026-04-29 06:42 52.42745 5.52658 1324 ft 90 kts 128°
2026-04-29 06:42 52.42281 5.53358 1205 ft 91 kts 127°
2026-04-29 06:42 52.41853 5.54079 1160 ft 85 kts 123°
2026-04-29 06:42 52.41457 5.54823 1047 ft 89 kts 122°
2026-04-29 06:43 52.41045 5.55602 980 ft 90 kts 120°
2026-04-29 06:43 52.40665 5.56405 961 ft 88 kts 118°
2026-04-29 06:43 52.40326 5.57228 919 ft 88 kts 113°
2026-04-29 06:43 52.39928 5.58024 909 ft 90 kts 108°
2026-04-29 06:44 52.39947 5.58991 1022 ft 83 kts 79°
2026-04-29 06:44 52.40069 5.59890 1159 ft 82 kts 75°
2026-04-29 06:44 52.40248 5.60804 1225 ft 85 kts 72°
2026-04-29 06:44 52.40467 5.61692 1307 ft 84 kts 70°
2026-04-29 06:45 52.40715 5.62596 1253 ft 90 kts 69°
2026-04-29 06:45 52.41009 5.63520 1267 ft 94 kts 68°
2026-04-29 06:45 52.41314 5.64449 1384 ft 91 kts 66°
2026-04-29 06:45 52.41627 5.65320 1425 ft 87 kts 65°
2026-04-29 06:46 52.41934 5.66215 1320 ft 93 kts 66°
2026-04-29 06:46 52.42196 5.67156 1331 ft 89 kts 71°
2026-04-29 06:46 52.42374 5.68131 1297 ft 90 kts 78°
2026-04-29 06:46 52.42473 5.69132 1278 ft 89 kts 85°
2026-04-29 06:47 52.42546 5.70147 1217 ft 93 kts 79°
2026-04-29 06:47 52.42807 5.71084 1290 ft 90 kts 62°
2026-04-29 06:47 52.43186 5.71903 1292 ft 94 kts 58°
2026-04-29 06:47 52.43589 5.72704 1297 ft 91 kts 58°
2026-04-29 06:48 52.43622 5.72771 1306 ft 91 kts 58°
2026-04-29 06:48 52.43995 5.73580 1288 ft 91 kts 65°
2026-04-29 06:48 52.44167 5.74555 1271 ft 89 kts 83°
2026-04-29 06:48 52.44246 5.75568 1258 ft 85 kts 82°
2026-04-29 06:49 52.44320 5.76527 1186 ft 88 kts 83°
2026-04-29 06:49 52.44378 5.77505 1186 ft 83 kts 84°
2026-04-29 06:49 52.44465 5.78470 1052 ft 91 kts 72°
2026-04-29 06:49 52.44869 5.79284 988 ft 96 kts 43°
2026-04-29 06:50 52.45440 5.79832 983 ft 94 kts 36°
2026-04-29 06:50 52.46023 5.80261 1001 ft 93 kts 35°
2026-04-29 06:50 52.46631 5.80689 992 ft 95 kts 34°
2026-04-29 06:50 52.47262 5.81072 1009 ft 96 kts 28°
2026-04-29 06:51 52.47914 5.81270 1074 ft 102 kts 22°
2026-04-29 06:51 52.48611 5.81487 1125 ft 103 kts 21°
2026-04-29 06:51 52.49340 5.81598 1135 ft 107 kts 14°
2026-04-29 06:51 52.50089 5.81549 1186 ft 108 kts 10°
2026-04-29 06:52 52.50831 5.81413 1259 ft 107 kts
2026-04-29 06:52 52.51582 5.81225 1276 ft 110 kts
2026-04-29 06:52 52.52345 5.81033 1309 ft 108 kts
2026-04-29 06:52 52.53071 5.80907 1371 ft 107 kts
2026-04-29 06:53 52.53822 5.80796 1388 ft 109 kts
2026-04-29 06:53 52.54566 5.80784 1344 ft 108 kts 14°
2026-04-29 06:53 52.55314 5.80820 1320 ft 105 kts 13°
2026-04-29 06:53 52.56062 5.80728 1217 ft 118 kts 353°
2026-04-29 06:54 52.56742 5.79903 1203 ft 127 kts 318°
2026-04-29 06:54 52.57274 5.78722 1239 ft 127 kts 313°
2026-04-29 06:54 52.57754 5.77494 1280 ft 130 kts 308°
2026-04-29 06:54 52.58185 5.76186 1311 ft 129 kts 302°
2026-04-29 06:55 52.58539 5.74814 1295 ft 132 kts 294°
2026-04-29 06:55 52.58799 5.73355 1270 ft 134 kts 290°
2026-04-29 06:55 52.59033 5.71884 1297 ft 132 kts 289°
2026-04-29 06:55 52.59248 5.70412 1308 ft 134 kts 287°
2026-04-29 06:56 52.59432 5.68887 1286 ft 136 kts 283°
2026-04-29 06:56 52.59558 5.67351 1297 ft 136 kts 279°
2026-04-29 06:56 52.59630 5.65793 1320 ft 136 kts 275°
2026-04-29 06:56 52.59661 5.64222 1300 ft 140 kts 273°
2026-04-29 06:57 52.59715 5.62655 1342 ft 135 kts 275°
2026-04-29 06:57 52.59723 5.61112 1345 ft 137 kts 260°
2026-04-29 06:57 52.59516 5.59551 1328 ft 135 kts 254°
2026-04-29 06:57 52.59272 5.58082 1323 ft 137 kts 251°
2026-04-29 06:58 52.58999 5.56589 1392 ft 132 kts 255°
2026-04-29 06:58 52.58738 5.55154 1412 ft 131 kts 237°
2026-04-29 06:58 52.58263 5.53898 1487 ft 126 kts 229°
2026-04-29 06:58 52.57655 5.52840 1425 ft 130 kts 210°
2026-04-29 06:59 52.56926 5.52108 1486 ft 119 kts 192°
2026-04-29 06:59 52.56142 5.51763 1462 ft 115 kts 179°
2026-04-29 06:59 52.55363 5.51650 1465 ft 111 kts 168°
2026-04-29 06:59 52.54600 5.51696 1443 ft 109 kts 165°
2026-04-29 07:00 52.53843 5.51795 1421 ft 109 kts 162°
2026-04-29 07:00 52.53102 5.51962 1416 ft 107 kts 162°
2026-04-29 07:00 52.52362 5.52173 1400 ft 107 kts 158°
2026-04-29 07:00 52.51612 5.52334 1481 ft 113 kts 170°
2026-04-29 07:01 52.50821 5.52097 1568 ft 117 kts 184°
2026-04-29 07:01 52.50025 5.51770 1527 ft 121 kts 187°
2026-04-29 07:01 52.49268 5.51087 1511 ft 127 kts 209°
2026-04-29 07:01 52.48628 5.50048 1487 ft 131 kts 219°
2026-04-29 07:02 52.48002 5.48961 1442 ft 131 kts 219°
2026-04-29 07:02 52.47292 5.48136 1381 ft 114 kts 176°
2026-04-29 07:02 52.46625 5.48537 1139 ft 105 kts 134°
2026-04-29 07:02 52.46020 5.49212 943 ft 110 kts 148°
2026-04-29 07:03 52.45221 5.49055 871 ft 126 kts 205°
2026-04-29 07:03 52.44559 5.48095 890 ft 123 kts 218°
2026-04-29 07:03 52.43874 5.47646 896 ft 97 kts 155°
2026-04-29 07:03 52.43484 5.48269 780 ft 66 kts 91°
2026-04-29 07:04 52.43739 5.48872 561 ft 76 kts 33°
2026-04-29 07:04 52.44197 5.49436 239 ft 89 kts 46°
2026-04-29 07:04 52.44560 5.50077 94 ft 66 kts 51°
2026-04-29 07:04 52.44819 5.50568 -6 ft 48 kts 44°
2026-04-29 07:05 52.44983 5.50854 -11 ft 28 kts 45°
2026-04-29 07:05 52.45110 5.51081 -10 ft 24 kts 48°
2026-04-29 07:05 52.45203 5.51246 -8 ft 18 kts 46°
2026-04-29 07:05 52.45297 5.51414 -9 ft 20 kts 48°
2026-04-29 07:06 52.45312 5.51514 -8 ft 8 kts 134°
2026-04-29 07:06 52.45263 5.51590 -10 ft 9 kts 137°
2026-04-29 07:06 52.45225 5.51653 -10 ft 7 kts 96°
2026-04-29 07:06 52.45236 5.51708 -10 ft 5 kts 94°
2026-04-29 07:07 52.45220 5.51740 -10 ft 2 kts 133°
2026-04-29 07:07 52.45218 5.51748 -10 ft 0 kts 110°